sensor_id;sensor_type;location;lat;lon;timestamp;pressure;altitude;pressure_sealevel;temperature
66604;BMP280;53460;39.612;8.822;2023-11-22T00:01:34;98316.53;;;13.68
66604;BMP280;53460;39.612;8.822;2023-11-22T00:04:00;98319.81;;;13.61
66604;BMP280;53460;39.612;8.822;2023-11-22T00:06:26;98333.78;;;13.53
66604;BMP280;53460;39.612;8.822;2023-11-22T00:08:52;98354.59;;;13.59
66604;BMP280;53460;39.612;8.822;2023-11-22T00:11:18;98339.13;;;13.53
66604;BMP280;53460;39.612;8.822;2023-11-22T00:13:45;98296.25;;;13.49
66604;BMP280;53460;39.612;8.822;2023-11-22T00:16:10;98273.53;;;13.54
66604;BMP280;53460;39.612;8.822;2023-11-22T00:18:36;98262.09;;;13.49
66604;BMP280;53460;39.612;8.822;2023-11-22T00:21:06;98241.88;;;13.38
66604;BMP280;53460;39.612;8.822;2023-11-22T00:23:31;98295.53;;;13.46
66604;BMP280;53460;39.612;8.822;2023-11-22T00:25:58;98320.91;;;13.41
66604;BMP280;53460;39.612;8.822;2023-11-22T00:28:24;98358.97;;;13.34
66604;BMP280;53460;39.612;8.822;2023-11-22T00:30:49;98375.00;;;13.32
66604;BMP280;53460;39.612;8.822;2023-11-22T00:33:15;98405.84;;;13.35
66604;BMP280;53460;39.612;8.822;2023-11-22T00:35:43;98413.81;;;13.31
66604;BMP280;53460;39.612;8.822;2023-11-22T00:38:09;98407.78;;;13.32
66604;BMP280;53460;39.612;8.822;2023-11-22T00:40:34;98397.75;;;13.33
66604;BMP280;53460;39.612;8.822;2023-11-22T00:43:00;98421.09;;;13.24
66604;BMP280;53460;39.612;8.822;2023-11-22T00:45:25;98446.56;;;13.27
66604;BMP280;53460;39.612;8.822;2023-11-22T00:47:51;98468.09;;;13.33
66604;BMP280;53460;39.612;8.822;2023-11-22T00:50:18;98510.22;;;13.33
66604;BMP280;53460;39.612;8.822;2023-11-22T00:52:47;98504.97;;;12.99
66604;BMP280;53460;39.612;8.822;2023-11-22T00:55:13;98562.78;;;13.14
66604;BMP280;53460;39.612;8.822;2023-11-22T00:57:40;98611.81;;;13.25
66604;BMP280;53460;39.612;8.822;2023-11-22T01:00:07;98637.94;;;13.26
66604;BMP280;53460;39.612;8.822;2023-11-22T01:02:37;98656.13;;;13.32
66604;BMP280;53460;39.612;8.822;2023-11-22T01:05:09;98638.13;;;13.34
66604;BMP280;53460;39.612;8.822;2023-11-22T01:07:39;98455.69;;;13.10
66604;BMP280;53460;39.612;8.822;2023-11-22T01:10:05;98309.97;;;13.21
66604;BMP280;53460;39.612;8.822;2023-11-22T01:12:32;98038.00;;;12.94
66604;BMP280;53460;39.612;8.822;2023-11-22T01:14:58;97704.91;;;12.86
66604;BMP280;53460;39.612;8.822;2023-11-22T01:17:24;97488.25;;;12.76
66604;BMP280;53460;39.612;8.822;2023-11-22T01:19:50;97244.34;;;12.47
66604;BMP280;53460;39.612;8.822;2023-11-22T01:22:20;97166.13;;;12.51
66604;BMP280;53460;39.612;8.822;2023-11-22T01:24:45;97065.25;;;12.45
66604;BMP280;53460;39.612;8.822;2023-11-22T01:27:11;96926.34;;;12.41
66604;BMP280;53460;39.612;8.822;2023-11-22T01:29:36;96829.41;;;12.53
66604;BMP280;53460;39.612;8.822;2023-11-22T01:32:02;96735.91;;;12.47
66604;BMP280;53460;39.612;8.822;2023-11-22T01:34:28;96763.25;;;12.53
66604;BMP280;53460;39.612;8.822;2023-11-22T01:36:54;96792.69;;;12.45
66604;BMP280;53460;39.612;8.822;2023-11-22T01:39:20;96820.19;;;12.32
66604;BMP280;53460;39.612;8.822;2023-11-22T01:41:46;96908.41;;;12.21
66604;BMP280;53460;39.612;8.822;2023-11-22T01:44:15;96977.28;;;12.07
66604;BMP280;53460;39.612;8.822;2023-11-22T01:46:42;97063.44;;;11.93
66604;BMP280;53460;39.612;8.822;2023-11-22T01:49:09;97072.13;;;11.77
66604;BMP280;53460;39.612;8.822;2023-11-22T01:51:35;97138.19;;;11.75
66604;BMP280;53460;39.612;8.822;2023-11-22T01:54:01;97172.22;;;11.76
66604;BMP280;53460;39.612;8.822;2023-11-22T01:56:27;97234.28;;;11.75
66604;BMP280;53460;39.612;8.822;2023-11-22T01:58:55;97274.94;;;11.59
66604;BMP280;53460;39.612;8.822;2023-11-22T02:01:22;97326.25;;;11.43
66604;BMP280;53460;39.612;8.822;2023-11-22T02:03:48;97416.41;;;11.55
66604;BMP280;53460;39.612;8.822;2023-11-22T02:06:15;97465.22;;;11.76
66604;BMP280;53460;39.612;8.822;2023-11-22T02:08:44;97433.84;;;11.74
66604;BMP280;53460;39.612;8.822;2023-11-22T02:11:10;97421.16;;;11.75
66604;BMP280;53460;39.612;8.822;2023-11-22T02:13:36;97429.84;;;11.79
66604;BMP280;53460;39.612;8.822;2023-11-22T02:16:02;97451.25;;;11.85
66604;BMP280;53460;39.612;8.822;2023-11-22T02:18:29;97446.63;;;11.98
66604;BMP280;53460;39.612;8.822;2023-11-22T02:20:56;97439.31;;;12.05
66604;BMP280;53460;39.612;8.822;2023-11-22T02:23:21;97479.41;;;12.17
66604;BMP280;53460;39.612;8.822;2023-11-22T02:25:47;97434.72;;;12.34
66604;BMP280;53460;39.612;8.822;2023-11-22T02:28:13;97346.53;;;12.30
66604;BMP280;53460;39.612;8.822;2023-11-22T02:30:39;97293.75;;;12.20
66604;BMP280;53460;39.612;8.822;2023-11-22T02:33:05;97307.78;;;12.16
66604;BMP280;53460;39.612;8.822;2023-11-22T02:35:32;97357.88;;;12.18
66604;BMP280;53460;39.612;8.822;2023-11-22T02:37:58;97372.53;;;11.99
66604;BMP280;53460;39.612;8.822;2023-11-22T02:40:25;97401.88;;;11.92
66604;BMP280;53460;39.612;8.822;2023-11-22T02:42:52;97439.34;;;12.11
66604;BMP280;53460;39.612;8.822;2023-11-22T02:45:20;97408.59;;;12.00
66604;BMP280;53460;39.612;8.822;2023-11-22T02:47:48;97465.38;;;12.06
66604;BMP280;53460;39.612;8.822;2023-11-22T02:50:16;97484.00;;;12.02
66604;BMP280;53460;39.612;8.822;2023-11-22T02:52:42;97490.72;;;12.09
66604;BMP280;53460;39.612;8.822;2023-11-22T02:55:08;97474.06;;;12.15
66604;BMP280;53460;39.612;8.822;2023-11-22T02:57:40;97355.19;;;12.14
66604;BMP280;53460;39.612;8.822;2023-11-22T03:00:09;97302.44;;;12.16
66604;BMP280;53460;39.612;8.822;2023-11-22T03:02:47;97253.69;;;11.98
66604;BMP280;53460;39.612;8.822;2023-11-22T03:05:13;97233.63;;;11.88
66604;BMP280;53460;39.612;8.822;2023-11-22T03:07:42;97238.31;;;11.82
66604;BMP280;53460;39.612;8.822;2023-11-22T03:10:07;97194.88;;;11.57
66604;BMP280;53460;39.612;8.822;2023-11-22T03:12:34;97108.81;;;11.40
66604;BMP280;53460;39.612;8.822;2023-11-22T03:15:00;97129.53;;;11.68
66604;BMP280;53460;39.612;8.822;2023-11-22T03:17:30;97085.47;;;11.75
66604;BMP280;53460;39.612;8.822;2023-11-22T03:19:56;97156.22;;;11.62
66604;BMP280;53460;39.612;8.822;2023-11-22T03:22:26;97309.03;;;11.77
66604;BMP280;53460;39.612;8.822;2023-11-22T03:24:52;97327.09;;;11.86
66604;BMP280;53460;39.612;8.822;2023-11-22T03:27:21;97324.38;;;11.76
66604;BMP280;53460;39.612;8.822;2023-11-22T03:29:47;97282.97;;;11.63
66604;BMP280;53460;39.612;8.822;2023-11-22T03:32:13;97277.66;;;11.63
66604;BMP280;53460;39.612;8.822;2023-11-22T03:34:39;97273.00;;;11.70
66604;BMP280;53460;39.612;8.822;2023-11-22T03:37:04;97257.63;;;11.60
66604;BMP280;53460;39.612;8.822;2023-11-22T03:39:30;97253.63;;;11.61
66604;BMP280;53460;39.612;8.822;2023-11-22T03:41:56;97184.22;;;11.49
66604;BMP280;53460;39.612;8.822;2023-11-22T03:44:22;97138.88;;;11.55
66604;BMP280;53460;39.612;8.822;2023-11-22T03:46:48;97102.16;;;11.49
66604;BMP280;53460;39.612;8.822;2023-11-22T03:49:14;97024.13;;;11.55
66604;BMP280;53460;39.612;8.822;2023-11-22T03:51:42;96926.03;;;11.63
66604;BMP280;53460;39.612;8.822;2023-11-22T03:54:08;96801.28;;;11.58
66604;BMP280;53460;39.612;8.822;2023-11-22T03:56:36;96804.66;;;11.56
66604;BMP280;53460;39.612;8.822;2023-11-22T03:59:02;96797.94;;;11.63
66604;BMP280;53460;39.612;8.822;2023-11-22T04:01:29;96795.28;;;11.61
66604;BMP280;53460;39.612;8.822;2023-11-22T04:03:54;96769.28;;;11.60
66604;BMP280;53460;39.612;8.822;2023-11-22T04:06:20;96742.00;;;11.49
66604;BMP280;53460;39.612;8.822;2023-11-22T04:08:46;96754.06;;;11.28
66604;BMP280;53460;39.612;8.822;2023-11-22T04:11:13;96826.75;;;11.26
66604;BMP280;53460;39.612;8.822;2023-11-22T04:13:38;96882.09;;;11.22
66604;BMP280;53460;39.612;8.822;2023-11-22T04:16:06;96900.78;;;11.14
66604;BMP280;53460;39.612;8.822;2023-11-22T04:18:37;96955.47;;;11.17
66604;BMP280;53460;39.612;8.822;2023-11-22T04:21:03;96978.09;;;11.12
66604;BMP280;53460;39.612;8.822;2023-11-22T04:23:33;97028.06;;;11.03
66604;BMP280;53460;39.612;8.822;2023-11-22T04:25:59;97044.78;;;11.06
66604;BMP280;53460;39.612;8.822;2023-11-22T04:28:26;97050.75;;;11.02
66604;BMP280;53460;39.612;8.822;2023-11-22T04:30:53;96968.09;;;10.90
66604;BMP280;53460;39.612;8.822;2023-11-22T04:33:19;96932.13;;;10.85
66604;BMP280;53460;39.612;8.822;2023-11-22T04:35:46;96916.78;;;10.95
66604;BMP280;53460;39.612;8.822;2023-11-22T04:38:12;96868.13;;;11.03
66604;BMP280;53460;39.612;8.822;2023-11-22T04:40:38;96891.47;;;11.11
66604;BMP280;53460;39.612;8.822;2023-11-22T04:43:04;96844.78;;;11.04
66604;BMP280;53460;39.612;8.822;2023-11-22T04:45:30;96899.47;;;10.84
66604;BMP280;53460;39.612;8.822;2023-11-22T04:47:56;96930.09;;;10.95
66604;BMP280;53460;39.612;8.822;2023-11-22T04:50:24;96916.78;;;11.14
66604;BMP280;53460;39.612;8.822;2023-11-22T04:52:50;96888.13;;;11.12
66604;BMP280;53460;39.612;8.822;2023-11-22T04:55:16;96889.41;;;11.27
66604;BMP280;53460;39.612;8.822;2023-11-22T04:57:43;96922.13;;;11.18
66604;BMP280;53460;39.612;8.822;2023-11-22T05:00:09;97022.75;;;11.03
66604;BMP280;53460;39.612;8.822;2023-11-22T05:02:35;97161.38;;;10.97
66604;BMP280;53460;39.612;8.822;2023-11-22T05:05:01;97191.44;;;11.10
66604;BMP280;53460;39.612;8.822;2023-11-22T05:07:26;97247.44;;;11.16
66604;BMP280;53460;39.612;8.822;2023-11-22T05:09:52;97314.09;;;11.10
66604;BMP280;53460;39.612;8.822;2023-11-22T05:12:18;97460.75;;;11.08
66604;BMP280;53460;39.612;8.822;2023-11-22T05:14:43;97504.81;;;11.15
66604;BMP280;53460;39.612;8.822;2023-11-22T05:17:10;97496.06;;;11.04
66604;BMP280;53460;39.612;8.822;2023-11-22T05:19:38;97554.88;;;11.18
66604;BMP280;53460;39.612;8.822;2023-11-22T05:22:04;97600.94;;;11.27
66604;BMP280;53460;39.612;8.822;2023-11-22T05:24:30;97552.03;;;11.02
66604;BMP280;53460;39.612;8.822;2023-11-22T05:26:55;97582.19;;;11.17
66604;BMP280;53460;39.612;8.822;2023-11-22T05:29:21;97647.63;;;11.26
66604;BMP280;53460;39.612;8.822;2023-11-22T05:31:47;97691.03;;;11.30
66604;BMP280;53460;39.612;8.822;2023-11-22T05:34:12;97699.09;;;11.37
66604;BMP280;53460;39.612;8.822;2023-11-22T05:36:38;97718.25;;;11.21
66604;BMP280;53460;39.612;8.822;2023-11-22T05:39:04;97752.16;;;11.12
66604;BMP280;53460;39.612;8.822;2023-11-22T05:41:30;97800.22;;;11.16
66604;BMP280;53460;39.612;8.822;2023-11-22T05:43:56;97844.28;;;11.21
66604;BMP280;53460;39.612;8.822;2023-11-22T05:46:22;97913.19;;;11.33
66604;BMP280;53460;39.612;8.822;2023-11-22T05:48:51;97931.53;;;11.11
66604;BMP280;53460;39.612;8.822;2023-11-22T05:51:17;98005.81;;;11.28
66604;BMP280;53460;39.612;8.822;2023-11-22T05:53:42;98058.19;;;11.10
66604;BMP280;53460;39.612;8.822;2023-11-22T05:56:08;98122.25;;;11.12
66604;BMP280;53460;39.612;8.822;2023-11-22T05:58:37;98176.94;;;11.13
66604;BMP280;53460;39.612;8.822;2023-11-22T06:01:07;98222.41;;;11.17
66604;BMP280;53460;39.612;8.822;2023-11-22T06:03:34;98254.56;;;11.25
66604;BMP280;53460;39.612;8.822;2023-11-22T06:06:00;98238.69;;;11.31
66604;BMP280;53460;39.612;8.822;2023-11-22T06:08:25;98194.63;;;11.30
66604;BMP280;53460;39.612;8.822;2023-11-22T06:10:51;98126.66;;;11.33
66604;BMP280;53460;39.612;8.822;2023-11-22T06:13:19;98007.59;;;11.56
66604;BMP280;53460;39.612;8.822;2023-11-22T06:15:45;97798.28;;;11.77
66604;BMP280;53460;39.612;8.822;2023-11-22T06:18:11;97536.03;;;11.85
66604;BMP280;53460;39.612;8.822;2023-11-22T06:20:41;97393.84;;;11.94
66604;BMP280;53460;39.612;8.822;2023-11-22T06:23:07;97349.16;;;11.91
66604;BMP280;53460;39.612;8.822;2023-11-22T06:25:32;97347.78;;;11.94
66604;BMP280;53460;39.612;8.822;2023-11-22T06:27:58;97325.84;;;12.28
66604;BMP280;53460;39.612;8.822;2023-11-22T06:30:23;97253.69;;;12.30
66604;BMP280;53460;39.612;8.822;2023-11-22T06:32:51;97199.53;;;12.56
66604;BMP280;53460;39.612;8.822;2023-11-22T06:35:16;97145.41;;;12.51
66604;BMP280;53460;39.612;8.822;2023-11-22T06:37:43;97087.94;;;12.52
66604;BMP280;53460;39.612;8.822;2023-11-22T06:40:12;97015.09;;;12.58
66604;BMP280;53460;39.612;8.822;2023-11-22T06:42:40;96979.66;;;12.66
66604;BMP280;53460;39.612;8.822;2023-11-22T06:45:06;96954.84;;;12.71
66604;BMP280;53460;39.612;8.822;2023-11-22T06:47:44;96894.53;;;12.95
66604;BMP280;53460;39.612;8.822;2023-11-22T06:50:10;96820.94;;;13.00
66604;BMP280;53460;39.612;8.822;2023-11-22T06:52:37;96729.38;;;12.97
66604;BMP280;53460;39.612;8.822;2023-11-22T06:55:04;96681.75;;;13.10
66604;BMP280;53460;39.612;8.822;2023-11-22T06:57:30;96561.00;;;12.91
66604;BMP280;53460;39.612;8.822;2023-11-22T06:59:56;96530.03;;;13.04
66604;BMP280;53460;39.612;8.822;2023-11-22T07:02:22;96473.44;;;13.31
66604;BMP280;53460;39.612;8.822;2023-11-22T07:04:48;96383.63;;;13.38
66604;BMP280;53460;39.612;8.822;2023-11-22T07:07:14;96260.41;;;13.15
66604;BMP280;53460;39.612;8.822;2023-11-22T07:09:43;96166.63;;;13.52
66604;BMP280;53460;39.612;8.822;2023-11-22T07:12:09;95973.94;;;13.77
66604;BMP280;53460;39.612;8.822;2023-11-22T07:14:36;95783.59;;;13.64
66604;BMP280;53460;39.612;8.822;2023-11-22T07:17:02;95747.03;;;13.34
66604;BMP280;53460;39.612;8.822;2023-11-22T07:19:28;95823.72;;;13.64
66604;BMP280;53460;39.612;8.822;2023-11-22T07:21:54;95810.59;;;15.02
66604;BMP280;53460;39.612;8.822;2023-11-22T07:24:20;95172.72;;;18.36
66604;BMP280;53460;39.612;8.822;2023-11-22T07:26:46;94853.78;;;19.38
66604;BMP280;53460;39.612;8.822;2023-11-22T07:29:12;95001.03;;;18.11
66604;BMP280;53460;39.612;8.822;2023-11-22T07:31:38;95068.97;;;18.46
66604;BMP280;53460;39.612;8.822;2023-11-22T07:34:05;95237.78;;;19.62
66604;BMP280;53460;39.612;8.822;2023-11-22T07:36:32;95492.00;;;18.16
66604;BMP280;53460;39.612;8.822;2023-11-22T07:38:57;95550.47;;;18.94
66604;BMP280;53460;39.612;8.822;2023-11-22T07:41:23;95765.13;;;20.60
66604;BMP280;53460;39.612;8.822;2023-11-22T07:43:48;96592.91;;;21.69
66604;BMP280;53460;39.612;8.822;2023-11-22T07:46:15;96815.34;;;20.16
66604;BMP280;53460;39.612;8.822;2023-11-22T07:48:42;97213.84;;;23.11
66604;BMP280;53460;39.612;8.822;2023-11-22T07:51:08;98596.47;;;23.24
66604;BMP280;53460;39.612;8.822;2023-11-22T07:53:34;98833.09;;;25.10
66604;BMP280;53460;39.612;8.822;2023-11-22T07:56:01;98909.44;;;25.79
66604;BMP280;53460;39.612;8.822;2023-11-22T07:58:32;98977.03;;;27.74
66604;BMP280;53460;39.612;8.822;2023-11-22T08:00:58;99012.38;;;27.28
66604;BMP280;53460;39.612;8.822;2023-11-22T08:03:28;99018.31;;;28.03
66604;BMP280;53460;39.612;8.822;2023-11-22T08:05:55;99018.66;;;27.95
66604;BMP280;53460;39.612;8.822;2023-11-22T08:08:22;99041.78;;;28.33
66604;BMP280;53460;39.612;8.822;2023-11-22T08:10:48;99034.19;;;28.34
66604;BMP280;53460;39.612;8.822;2023-11-22T08:13:17;99025.81;;;28.21
66604;BMP280;53460;39.612;8.822;2023-11-22T08:15:45;99029.16;;;28.72
66604;BMP280;53460;39.612;8.822;2023-11-22T08:18:13;99038.66;;;28.75
66604;BMP280;53460;39.612;8.822;2023-11-22T08:20:38;99028.16;;;28.48
66604;BMP280;53460;39.612;8.822;2023-11-22T08:23:04;99034.91;;;30.15
66604;BMP280;53460;39.612;8.822;2023-11-22T08:25:32;99035.56;;;30.15
66604;BMP280;53460;39.612;8.822;2023-11-22T08:27:57;99033.56;;;30.94
66604;BMP280;53460;39.612;8.822;2023-11-22T08:30:23;99037.38;;;31.87
66604;BMP280;53460;39.612;8.822;2023-11-22T08:32:49;99035.66;;;30.93
66604;BMP280;53460;39.612;8.822;2023-11-22T08:35:20;99039.19;;;30.39
66604;BMP280;53460;39.612;8.822;2023-11-22T08:37:49;99040.31;;;31.35
66604;BMP280;53460;39.612;8.822;2023-11-22T08:40:16;99003.34;;;27.48
66604;BMP280;53460;39.612;8.822;2023-11-22T08:42:46;98905.69;;;22.70
66604;BMP280;53460;39.612;8.822;2023-11-22T08:45:12;98417.81;;;18.89
66604;BMP280;53460;39.612;8.822;2023-11-22T08:47:41;98617.59;;;24.44
66604;BMP280;53460;39.612;8.822;2023-11-22T08:50:08;98788.22;;;22.97
66604;BMP280;53460;39.612;8.822;2023-11-22T08:52:34;98978.97;;;29.19
66604;BMP280;53460;39.612;8.822;2023-11-22T08:55:00;99010.06;;;29.31
66604;BMP280;53460;39.612;8.822;2023-11-22T08:57:28;99036.44;;;31.29
66604;BMP280;53460;39.612;8.822;2023-11-22T08:59:55;99041.13;;;30.28
66604;BMP280;53460;39.612;8.822;2023-11-22T09:02:22;99049.97;;;33.43
66604;BMP280;53460;39.612;8.822;2023-11-22T09:04:48;99069.31;;;32.54
66604;BMP280;53460;39.612;8.822;2023-11-22T09:07:13;99074.34;;;32.96
66604;BMP280;53460;39.612;8.822;2023-11-22T09:09:43;99081.06;;;33.75
66604;BMP280;53460;39.612;8.822;2023-11-22T09:12:10;98943.59;;;23.79
66604;BMP280;53460;39.612;8.822;2023-11-22T09:14:39;98755.25;;;25.32
66604;BMP280;53460;39.612;8.822;2023-11-22T09:17:09;98994.91;;;31.08
66604;BMP280;53460;39.612;8.822;2023-11-22T09:19:35;98917.47;;;24.44
66604;BMP280;53460;39.612;8.822;2023-11-22T09:22:01;98556.34;;;20.63
66604;BMP280;53460;39.612;8.822;2023-11-22T09:24:27;97844.25;;;19.32
66604;BMP280;53460;39.612;8.822;2023-11-22T09:26:53;97492.19;;;18.50
66604;BMP280;53460;39.612;8.822;2023-11-22T09:29:18;97635.25;;;18.81
66604;BMP280;53460;39.612;8.822;2023-11-22T09:31:44;97536.97;;;18.39
66604;BMP280;53460;39.612;8.822;2023-11-22T09:34:13;97348.63;;;18.17
66604;BMP280;53460;39.612;8.822;2023-11-22T09:36:39;97440.63;;;17.72
66604;BMP280;53460;39.612;8.822;2023-11-22T09:39:05;97243.03;;;18.31
66604;BMP280;53460;39.612;8.822;2023-11-22T09:41:35;96942.84;;;18.33
66604;BMP280;53460;39.612;8.822;2023-11-22T09:44:01;96782.31;;;18.34
66604;BMP280;53460;39.612;8.822;2023-11-22T09:46:27;96606.00;;;17.85
66604;BMP280;53460;39.612;8.822;2023-11-22T09:48:56;96510.34;;;17.84
66604;BMP280;53460;39.612;8.822;2023-11-22T09:51:34;96460.09;;;17.76
66604;BMP280;53460;39.612;8.822;2023-11-22T09:54:06;96178.28;;;17.31
66604;BMP280;53460;39.612;8.822;2023-11-22T09:56:40;95814.91;;;16.98
66604;BMP280;53460;39.612;8.822;2023-11-22T09:59:07;95708.22;;;17.36
66604;BMP280;53460;39.612;8.822;2023-11-22T10:01:33;95549.31;;;17.24
66604;BMP280;53460;39.612;8.822;2023-11-22T10:04:02;95387.56;;;17.15
66604;BMP280;53460;39.612;8.822;2023-11-22T10:06:31;95328.78;;;17.07
66604;BMP280;53460;39.612;8.822;2023-11-22T10:09:02;95335.47;;;17.21
66604;BMP280;53460;39.612;8.822;2023-11-22T10:11:34;95259.97;;;16.97
66604;BMP280;53460;39.612;8.822;2023-11-22T10:14:02;95249.78;;;17.00
66604;BMP280;53460;39.612;8.822;2023-11-22T10:16:27;95342.88;;;16.67
66604;BMP280;53460;39.612;8.822;2023-11-22T10:18:53;95302.94;;;16.99
66604;BMP280;53460;39.612;8.822;2023-11-22T10:23:49;95322.66;;;17.34
66604;BMP280;53460;39.612;8.822;2023-11-22T10:26:17;95342.78;;;17.47
66604;BMP280;53460;39.612;8.822;2023-11-22T10:28:43;95445.88;;;18.22
66604;BMP280;53460;39.612;8.822;2023-11-22T10:31:09;96006.22;;;19.94
66604;BMP280;53460;39.612;8.822;2023-11-22T10:33:42;96473.66;;;21.54
66604;BMP280;53460;39.612;8.822;2023-11-22T10:36:08;97038.03;;;22.51
66604;BMP280;53460;39.612;8.822;2023-11-22T10:38:34;97426.91;;;20.57
66604;BMP280;53460;39.612;8.822;2023-11-22T10:41:05;97114.44;;;19.54
66604;BMP280;53460;39.612;8.822;2023-11-22T10:43:30;96963.19;;;20.57
66604;BMP280;53460;39.612;8.822;2023-11-22T10:46:02;97571.97;;;21.75
66604;BMP280;53460;39.612;8.822;2023-11-22T10:48:27;97669.88;;;20.84
66604;BMP280;53460;39.612;8.822;2023-11-22T10:50:57;97474.31;;;19.92
66604;BMP280;53460;39.612;8.822;2023-11-22T10:53:31;97308.38;;;19.56
66604;BMP280;53460;39.612;8.822;2023-11-22T10:56:04;97598.31;;;20.08
66604;BMP280;53460;39.612;8.822;2023-11-22T10:58:32;97781.78;;;19.75
66604;BMP280;53460;39.612;8.822;2023-11-22T11:00:58;97866.44;;;19.98
66604;BMP280;53460;39.612;8.822;2023-11-22T11:03:28;97989.66;;;19.93
66604;BMP280;53460;39.612;8.822;2023-11-22T11:05:59;98043.75;;;19.95
66604;BMP280;53460;39.612;8.822;2023-11-22T11:08:30;98157.03;;;20.79
66604;BMP280;53460;39.612;8.822;2023-11-22T11:10:57;98219.88;;;20.20
66604;BMP280;53460;39.612;8.822;2023-11-22T11:13:25;98152.25;;;19.81
66604;BMP280;53460;39.612;8.822;2023-11-22T11:15:52;98051.78;;;19.27
66604;BMP280;53460;39.612;8.822;2023-11-22T11:18:19;97913.06;;;18.63
66604;BMP280;53460;39.612;8.822;2023-11-22T11:20:48;97774.69;;;18.27
66604;BMP280;53460;39.612;8.822;2023-11-22T11:23:19;97688.81;;;18.71
66604;BMP280;53460;39.612;8.822;2023-11-22T11:26:09;97951.84;;;19.91
66604;BMP280;53460;39.612;8.822;2023-11-22T11:28:46;98083.78;;;19.88
66604;BMP280;53460;39.612;8.822;2023-11-22T11:31:16;98198.09;;;19.89
66604;BMP280;53460;39.612;8.822;2023-11-22T11:36:24;98219.41;;;20.09
66604;BMP280;53460;39.612;8.822;2023-11-22T11:38:52;98237.69;;;20.07
66604;BMP280;53460;39.612;8.822;2023-11-22T11:41:17;98272.59;;;20.93
66604;BMP280;53460;39.612;8.822;2023-11-22T11:43:45;98402.13;;;20.88
66604;BMP280;53460;39.612;8.822;2023-11-22T11:46:15;98306.47;;;19.81
66604;BMP280;53460;39.612;8.822;2023-11-22T11:48:51;98170.50;;;18.96
66604;BMP280;53460;39.612;8.822;2023-11-22T11:51:18;98201.06;;;20.12
66604;BMP280;53460;39.612;8.822;2023-11-22T11:53:47;98320.66;;;20.61
66604;BMP280;53460;39.612;8.822;2023-11-22T11:56:13;98434.22;;;20.74
66604;BMP280;53460;39.612;8.822;2023-11-22T11:58:41;98436.38;;;20.26
66604;BMP280;53460;39.612;8.822;2023-11-22T12:01:08;98449.38;;;20.15
66604;BMP280;53460;39.612;8.822;2023-11-22T12:03:37;98370.09;;;19.78
66604;BMP280;53460;39.612;8.822;2023-11-22T12:06:05;98384.81;;;19.89
66604;BMP280;53460;39.612;8.822;2023-11-22T12:08:30;98413.91;;;19.88
66604;BMP280;53460;39.612;8.822;2023-11-22T12:11:02;98413.22;;;20.35
66604;BMP280;53460;39.612;8.822;2023-11-22T12:13:29;98436.25;;;20.32
66604;BMP280;53460;39.612;8.822;2023-11-22T12:15:55;98454.72;;;20.19
66604;BMP280;53460;39.612;8.822;2023-11-22T12:18:22;98442.00;;;20.12
66604;BMP280;53460;39.612;8.822;2023-11-22T12:20:58;98431.66;;;19.77
66604;BMP280;53460;39.612;8.822;2023-11-22T12:23:26;98299.09;;;18.75
66604;BMP280;53460;39.612;8.822;2023-11-22T12:26:01;98144.31;;;18.33
66604;BMP280;53460;39.612;8.822;2023-11-22T12:28:31;98073.00;;;18.18
66604;BMP280;53460;39.612;8.822;2023-11-22T12:31:10;98074.34;;;18.17
66604;BMP280;53460;39.612;8.822;2023-11-22T12:33:36;98006.16;;;18.20
66604;BMP280;53460;39.612;8.822;2023-11-22T12:36:03;97941.25;;;18.31
66604;BMP280;53460;39.612;8.822;2023-11-22T12:38:29;97967.72;;;18.67
66604;BMP280;53460;39.612;8.822;2023-11-22T12:40:58;98179.06;;;19.56
66604;BMP280;53460;39.612;8.822;2023-11-22T12:43:24;98150.91;;;18.96
66604;BMP280;53460;39.612;8.822;2023-11-22T12:46:01;97969.13;;;18.62
66604;BMP280;53460;39.612;8.822;2023-11-22T12:48:27;97940.31;;;19.26
66604;BMP280;53460;39.612;8.822;2023-11-22T12:50:57;97848.16;;;19.06
66604;BMP280;53460;39.612;8.822;2023-11-22T12:53:24;97744.72;;;18.78
66604;BMP280;53460;39.612;8.822;2023-11-22T12:55:56;97806.69;;;18.49
66604;BMP280;53460;39.612;8.822;2023-11-22T12:58:23;97644.72;;;18.49
66604;BMP280;53460;39.612;8.822;2023-11-22T13:00:52;97497.91;;;18.36
66604;BMP280;53460;39.612;8.822;2023-11-22T13:03:24;97524.94;;;18.34
66604;BMP280;53460;39.612;8.822;2023-11-22T13:05:51;97601.22;;;17.98
66604;BMP280;53460;39.612;8.822;2023-11-22T13:08:20;97583.03;;;17.98
66604;BMP280;53460;39.612;8.822;2023-11-22T13:10:48;97549.31;;;17.62
66604;BMP280;53460;39.612;8.822;2023-11-22T13:13:24;97573.31;;;17.76
66604;BMP280;53460;39.612;8.822;2023-11-22T13:15:51;97535.97;;;17.56
66604;BMP280;53460;39.612;8.822;2023-11-22T13:18:20;97491.84;;;17.37
66604;BMP280;53460;39.612;8.822;2023-11-22T13:20:46;97505.81;;;17.45
66604;BMP280;53460;39.612;8.822;2023-11-22T13:23:12;97477.72;;;17.34
66604;BMP280;53460;39.612;8.822;2023-11-22T13:25:39;97514.09;;;17.35
66604;BMP280;53460;39.612;8.822;2023-11-22T13:28:07;97376.47;;;17.12
66604;BMP280;53460;39.612;8.822;2023-11-22T13:30:34;97457.75;;;17.23
66604;BMP280;53460;39.612;8.822;2023-11-22T13:33:00;97399.28;;;17.17
66604;BMP280;53460;39.612;8.822;2023-11-22T13:35:26;97423.53;;;17.17
66604;BMP280;53460;39.612;8.822;2023-11-22T13:38:00;97406.53;;;17.25
66604;BMP280;53460;39.612;8.822;2023-11-22T13:40:28;97326.09;;;17.07
66604;BMP280;53460;39.612;8.822;2023-11-22T13:42:58;97304.31;;;16.84
66604;BMP280;53460;39.612;8.822;2023-11-22T13:45:24;97348.53;;;16.95
66604;BMP280;53460;39.612;8.822;2023-11-22T13:47:53;97406.28;;;17.02
66604;BMP280;53460;39.612;8.822;2023-11-22T13:50:34;97551.28;;;16.83
66604;BMP280;53460;39.612;8.822;2023-11-22T13:53:00;97614.88;;;16.58
66604;BMP280;53460;39.612;8.822;2023-11-22T13:55:26;97672.97;;;16.94
66604;BMP280;53460;39.612;8.822;2023-11-22T13:57:53;97705.41;;;16.84
66604;BMP280;53460;39.612;8.822;2023-11-22T14:00:20;97641.59;;;16.74
66604;BMP280;53460;39.612;8.822;2023-11-22T14:02:50;97692.53;;;16.91
66604;BMP280;53460;39.612;8.822;2023-11-22T14:05:17;97837.84;;;17.54
66604;BMP280;53460;39.612;8.822;2023-11-22T14:07:43;97954.44;;;18.06
66604;BMP280;53460;39.612;8.822;2023-11-22T14:10:12;97921.88;;;17.69
66604;BMP280;53460;39.612;8.822;2023-11-22T14:12:42;97909.50;;;18.35
66604;BMP280;53460;39.612;8.822;2023-11-22T14:15:08;97879.81;;;17.90